MMHO/HMO METAR and TAF weather

Enter ICAO airport designator
Station Type Date Time Source
MMHO METAR 2019/05/25 14:40 UTC NOAA

MMHO 251440Z 09004KT 10SM SKC 25/05 A2989 RMK SLP115 52011 959 ISOL AC HZY


Station Type Date Time Source
MMHO Decoded METAR 2019/05/25 14:40 UTC NOAA

Hermosillo, Son., Mexico (MMHO) 29-04N 110-57W
May 25, 2019 - 10:40 AM EDT / 2019.05.25 1440 UTC
Wind: from the E (090 degrees) at 5 MPH (4 KT):0
Visibility: 10 mile(s):0
Sky conditions: clear
Temperature: 77 F (25 C)
Dew Point: 41 F (5 C)
Relative Humidity: 27%
Pressure (altimeter): 29.89 in. Hg (1012 hPa)
Pressure tendency: 0.03 inches (1.1 hPa) higher than three hours ago
ob: MMHO 251440Z 09004KT 10SM SKC 25/05 A2989 RMK SLP115 52011 959 ISOL AC HZY
cycle: 14

Station Type Date Time Source
MMHO TAF 2019/05/25 06:41 UTC NOAA

TAF MMHO 250434Z 2506/2606 24005KT P6SM SCT250
FM251800 24012KT P6SM SKC
FM260200 24005KT P6SM SKC

Example: see airport list